Weather at Sacramento International Airport

Public forecast

Using degrees Fahrenheit for public forecast. Weather courtesy of forecast.io.

Current aviation weather report (METAR) for Sacramento International Airport

2024/07/20 14:53 (retrieved 38 minutes ago)

KSMF 201453Z 23003KT 8SM BKN170 22/14 A2988 RMK AO2 SLP116 T02220139 53016

Aviation forecast (TAF) for Sacramento International Airport

2024/07/20 12:22 (retrieved 3 hours ago)

TAF KSMF 201120Z 2012/2112 18007KT P6SM SKC FM210000 18013G20KT P6SM SKC FM210600 17011KT P6SM SKC